sensor_id;sensor_type;location;lat;lon;timestamp;pressure;altitude;pressure_sealevel;temperature;humidity
84136;BME280;74238;50.566;7.262;2024-01-16T00:01:14;100313.47;;;0.65;82.50
84136;BME280;74238;50.566;7.262;2024-01-16T00:03:41;100326.72;;;0.78;81.58
84136;BME280;74238;50.566;7.262;2024-01-16T00:06:07;100329.38;;;0.81;81.48
84136;BME280;74238;50.566;7.262;2024-01-16T00:08:32;100310.94;;;0.70;82.42
84136;BME280;74238;50.566;7.262;2024-01-16T00:10:58;100329.38;;;0.81;81.80
84136;BME280;74238;50.566;7.262;2024-01-16T00:13:23;100330.22;;;0.80;82.05
84136;BME280;74238;50.566;7.262;2024-01-16T00:15:48;100337.22;;;0.84;81.08
84136;BME280;74238;50.566;7.262;2024-01-16T00:18:15;100331.97;;;0.81;82.27
84136;BME280;74238;50.566;7.262;2024-01-16T00:20:40;100338.13;;;0.84;81.89
84136;BME280;74238;50.566;7.262;2024-01-16T00:23:05;100325.88;;;0.79;81.50
84136;BME280;74238;50.566;7.262;2024-01-16T00:25:31;100322.31;;;0.74;81.37
84136;BME280;74238;50.566;7.262;2024-01-16T00:27:56;100344.19;;;0.85;81.50
84136;BME280;74238;50.566;7.262;2024-01-16T00:30:21;100341.59;;;0.85;81.12
84136;BME280;74238;50.566;7.262;2024-01-16T00:32:47;100346.78;;;0.86;81.76
84136;BME280;74238;50.566;7.262;2024-01-16T00:35:12;100349.44;;;0.88;81.27
84136;BME280;74238;50.566;7.262;2024-01-16T00:37:38;100345.97;;;0.87;82.07
84136;BME280;74238;50.566;7.262;2024-01-16T00:40:04;100348.56;;;0.87;81.83
84136;BME280;74238;50.566;7.262;2024-01-16T00:42:30;100355.50;;;0.87;81.78
84136;BME280;74238;50.566;7.262;2024-01-16T00:44:56;100355.50;;;0.87;81.54
84136;BME280;74238;50.566;7.262;2024-01-16T00:47:25;100354.53;;;0.82;81.66
84136;BME280;74238;50.566;7.262;2024-01-16T00:49:50;100324.69;;;0.63;81.79
84136;BME280;74238;50.566;7.262;2024-01-16T00:52:15;100359.78;;;0.85;81.73
84136;BME280;74238;50.566;7.262;2024-01-16T00:54:41;100359.78;;;0.85;81.90
84136;BME280;74238;50.566;7.262;2024-01-16T00:57:07;100358.06;;;0.85;81.74
84136;BME280;74238;50.566;7.262;2024-01-16T00:59:32;100363.19;;;0.84;81.32
84136;BME280;74238;50.566;7.262;2024-01-16T01:01:58;100353.47;;;0.74;81.66
84136;BME280;74238;50.566;7.262;2024-01-16T01:04:23;100365.81;;;0.84;81.39
84136;BME280;74238;50.566;7.262;2024-01-16T01:06:48;100353.59;;;0.80;82.26
84136;BME280;74238;50.566;7.262;2024-01-16T01:09:14;100356.25;;;0.83;82.20
84136;BME280;74238;50.566;7.262;2024-01-16T01:11:39;100365.81;;;0.84;81.97
84136;BME280;74238;50.566;7.262;2024-01-16T01:14:04;100360.59;;;0.84;82.39
84136;BME280;74238;50.566;7.262;2024-01-16T01:16:31;100337.00;;;0.73;82.53
84136;BME280;74238;50.566;7.262;2024-01-16T01:18:56;100329.94;;;0.66;82.14
84136;BME280;74238;50.566;7.262;2024-01-16T01:21:21;100365.91;;;0.87;82.09
84136;BME280;74238;50.566;7.262;2024-01-16T01:23:46;100369.38;;;0.87;81.71
84136;BME280;74238;50.566;7.262;2024-01-16T01:26:12;100375.44;;;0.89;80.66
84136;BME280;74238;50.566;7.262;2024-01-16T01:28:43;100336.09;;;0.71;81.24
84136;BME280;74238;50.566;7.262;2024-01-16T01:31:09;100322.91;;;0.60;81.25
84136;BME280;74238;50.566;7.262;2024-01-16T01:33:34;100371.09;;;0.87;81.98
84136;BME280;74238;50.566;7.262;2024-01-16T01:36:00;100371.09;;;0.87;81.15
84136;BME280;74238;50.566;7.262;2024-01-16T01:38:25;100365.75;;;0.81;81.40
84136;BME280;74238;50.566;7.262;2024-01-16T01:40:50;100377.97;;;0.86;81.42
84136;BME280;74238;50.566;7.262;2024-01-16T01:43:22;100352.69;;;0.76;80.94
84136;BME280;74238;50.566;7.262;2024-01-16T01:46:17;100385.78;;;0.86;81.53
84136;BME280;74238;50.566;7.262;2024-01-16T01:48:44;100377.91;;;0.82;81.74
84136;BME280;74238;50.566;7.262;2024-01-16T01:51:12;100392.75;;;0.87;81.02
84136;BME280;74238;50.566;7.262;2024-01-16T01:53:38;100364.75;;;0.76;81.53
84136;BME280;74238;50.566;7.262;2024-01-16T01:56:06;100381.38;;;0.84;81.31
84136;BME280;74238;50.566;7.262;2024-01-16T01:58:33;100390.09;;;0.84;81.19
84136;BME280;74238;50.566;7.262;2024-01-16T02:00:59;100391.78;;;0.82;81.52
84136;BME280;74238;50.566;7.262;2024-01-16T02:03:27;100394.25;;;0.78;81.04
84136;BME280;74238;50.566;7.262;2024-01-16T02:05:55;100389.00;;;0.75;81.24
84136;BME280;74238;50.566;7.262;2024-01-16T02:08:22;100403.03;;;0.83;81.52
84136;BME280;74238;50.566;7.262;2024-01-16T02:10:49;100410.84;;;0.83;80.84
84136;BME280;74238;50.566;7.262;2024-01-16T02:13:15;100401.28;;;0.82;80.19
84136;BME280;74238;50.566;7.262;2024-01-16T02:15:40;100403.91;;;0.82;80.42
84136;BME280;74238;50.566;7.262;2024-01-16T02:18:07;100399.53;;;0.81;80.68
84136;BME280;74238;50.566;7.262;2024-01-16T02:20:32;100399.53;;;0.81;80.77
84136;BME280;74238;50.566;7.262;2024-01-16T02:23:00;100406.44;;;0.79;80.76
84136;BME280;74238;50.566;7.262;2024-01-16T02:25:27;100403.84;;;0.79;80.33
84136;BME280;74238;50.566;7.262;2024-01-16T02:27:53;100393.34;;;0.74;80.45
84136;BME280;74238;50.566;7.262;2024-01-16T02:30:18;100406.44;;;0.79;80.94
84136;BME280;74238;50.566;7.262;2024-01-16T02:32:43;100404.66;;;0.78;81.09
84136;BME280;74238;50.566;7.262;2024-01-16T02:35:09;100415.03;;;0.76;80.69
84136;BME280;74238;50.566;7.262;2024-01-16T02:37:35;100406.22;;;0.70;81.13
84136;BME280;74238;50.566;7.262;2024-01-16T02:40:00;100408.78;;;0.68;80.82
84136;BME280;74238;50.566;7.262;2024-01-16T02:42:29;100417.41;;;0.67;80.99
84136;BME280;74238;50.566;7.262;2024-01-16T02:44:55;100419.25;;;0.71;80.63
84136;BME280;74238;50.566;7.262;2024-01-16T02:47:20;100409.59;;;0.65;81.38
84136;BME280;74238;50.566;7.262;2024-01-16T02:49:45;100416.53;;;0.66;81.83
84136;BME280;74238;50.566;7.262;2024-01-16T02:52:11;100418.22;;;0.64;81.82
84136;BME280;74238;50.566;7.262;2024-01-16T02:54:37;100404.19;;;0.56;81.91
84136;BME280;74238;50.566;7.262;2024-01-16T02:57:02;100408.50;;;0.56;82.44
84136;BME280;74238;50.566;7.262;2024-01-16T02:59:28;100415.44;;;0.57;82.05
84136;BME280;74238;50.566;7.262;2024-01-16T03:01:55;100382.97;;;0.38;82.23
84136;BME280;74238;50.566;7.262;2024-01-16T03:04:23;100424.03;;;0.54;83.08
84136;BME280;74238;50.566;7.262;2024-01-16T03:06:49;100377.59;;;0.29;82.72
84136;BME280;74238;50.566;7.262;2024-01-16T03:09:14;100422.28;;;0.52;83.15
84136;BME280;74238;50.566;7.262;2024-01-16T03:11:39;100420.50;;;0.51;82.68
84136;BME280;74238;50.566;7.262;2024-01-16T03:14:05;100407.28;;;0.40;82.96
84136;BME280;74238;50.566;7.262;2024-01-16T03:16:31;100420.44;;;0.48;83.48
84136;BME280;74238;50.566;7.262;2024-01-16T03:18:57;100398.34;;;0.29;83.32
84136;BME280;74238;50.566;7.262;2024-01-16T03:21:22;100392.31;;;0.30;83.38
84136;BME280;74238;50.566;7.262;2024-01-16T03:23:48;100415.19;;;0.44;83.89
84136;BME280;74238;50.566;7.262;2024-01-16T03:26:14;100398.34;;;0.29;84.07
84136;BME280;74238;50.566;7.262;2024-01-16T03:28:39;100420.31;;;0.43;84.00
84136;BME280;74238;50.566;7.262;2024-01-16T03:31:05;100424.69;;;0.44;83.74
84136;BME280;74238;50.566;7.262;2024-01-16T03:33:30;100412.53;;;0.43;84.05
84136;BME280;74238;50.566;7.262;2024-01-16T03:35:56;100418.63;;;0.43;83.99
84136;BME280;74238;50.566;7.262;2024-01-16T03:38:21;100415.13;;;0.43;84.07
84136;BME280;74238;50.566;7.262;2024-01-16T03:40:46;100371.34;;;0.20;84.04
84136;BME280;74238;50.566;7.262;2024-01-16T03:43:11;100397.66;;;0.36;84.31
84136;BME280;74238;50.566;7.262;2024-01-16T03:45:37;100416.97;;;0.47;83.98
84136;BME280;74238;50.566;7.262;2024-01-16T03:48:02;100423.91;;;0.48;84.16
84136;BME280;74238;50.566;7.262;2024-01-16T03:50:28;100396.81;;;0.37;84.62
84136;BME280;74238;50.566;7.262;2024-01-16T03:52:53;100417.88;;;0.49;84.58
84136;BME280;74238;50.566;7.262;2024-01-16T03:55:19;100417.88;;;0.49;84.72
84136;BME280;74238;50.566;7.262;2024-01-16T03:57:44;100417.00;;;0.49;84.70
84136;BME280;74238;50.566;7.262;2024-01-16T04:00:11;100350.31;;;0.08;84.15
84136;BME280;74238;50.566;7.262;2024-01-16T04:02:37;100421.34;;;0.50;84.05
84136;BME280;74238;50.566;7.262;2024-01-16T04:05:03;100421.34;;;0.50;84.42
84136;BME280;74238;50.566;7.262;2024-01-16T04:07:29;100417.88;;;0.49;84.52
84136;BME280;74238;50.566;7.262;2024-01-16T04:09:54;100424.81;;;0.50;83.92
84136;BME280;74238;50.566;7.262;2024-01-16T04:12:22;100426.56;;;0.51;84.53
84136;BME280;74238;50.566;7.262;2024-01-16T04:14:48;100423.16;;;0.52;83.84
84136;BME280;74238;50.566;7.262;2024-01-16T04:17:13;100424.91;;;0.53;84.41
84136;BME280;74238;50.566;7.262;2024-01-16T04:19:38;100395.94;;;0.36;84.31
84136;BME280;74238;50.566;7.262;2024-01-16T04:22:04;100415.38;;;0.54;83.48
84136;BME280;74238;50.566;7.262;2024-01-16T04:24:30;100410.91;;;0.48;83.25
84136;BME280;74238;50.566;7.262;2024-01-16T04:26:55;100408.38;;;0.51;83.23
84136;BME280;74238;50.566;7.262;2024-01-16T04:29:21;100410.19;;;0.54;83.17
84136;BME280;74238;50.566;7.262;2024-01-16T04:31:46;100409.31;;;0.53;83.14
84136;BME280;74238;50.566;7.262;2024-01-16T04:34:11;100404.84;;;0.48;83.33
84136;BME280;74238;50.566;7.262;2024-01-16T04:36:37;100416.25;;;0.54;83.41
84136;BME280;74238;50.566;7.262;2024-01-16T04:39:02;100409.31;;;0.53;83.25
84136;BME280;74238;50.566;7.262;2024-01-16T04:41:29;100409.31;;;0.53;83.08
84136;BME280;74238;50.566;7.262;2024-01-16T04:43:54;100419.69;;;0.52;82.96
84136;BME280;74238;50.566;7.262;2024-01-16T04:46:20;100407.56;;;0.52;82.78
84136;BME280;74238;50.566;7.262;2024-01-16T04:48:45;100409.28;;;0.52;82.69
84136;BME280;74238;50.566;7.262;2024-01-16T04:51:10;100408.38;;;0.51;82.91
84136;BME280;74238;50.566;7.262;2024-01-16T04:53:36;100403.19;;;0.50;82.63
84136;BME280;74238;50.566;7.262;2024-01-16T04:56:01;100406.53;;;0.46;82.50
84136;BME280;74238;50.566;7.262;2024-01-16T04:58:27;100322.44;;;0.01;82.33
84136;BME280;74238;50.566;7.262;2024-01-16T05:00:52;100384.69;;;0.36;82.86
84136;BME280;74238;50.566;7.262;2024-01-16T05:03:18;100401.34;;;0.46;82.73
84136;BME280;74238;50.566;7.262;2024-01-16T05:05:44;100411.66;;;0.42;82.16
84136;BME280;74238;50.566;7.262;2024-01-16T05:08:09;100407.34;;;0.43;82.69
84136;BME280;74238;50.566;7.262;2024-01-16T05:10:35;100417.78;;;0.46;82.11
84136;BME280;74238;50.566;7.262;2024-01-16T05:13:00;100411.72;;;0.44;82.67
84136;BME280;74238;50.566;7.262;2024-01-16T05:15:26;100405.38;;;0.33;82.34
84136;BME280;74238;50.566;7.262;2024-01-16T05:17:51;100398.44;;;0.32;82.48
84136;BME280;74238;50.566;7.262;2024-01-16T05:20:19;100415.00;;;0.37;82.61
84136;BME280;74238;50.566;7.262;2024-01-16T05:22:46;100412.41;;;0.37;82.25
84136;BME280;74238;50.566;7.262;2024-01-16T05:25:11;100411.47;;;0.33;82.38
84136;BME280;74238;50.566;7.262;2024-01-16T05:27:37;100366.63;;;0.04;82.29
84136;BME280;74238;50.566;7.262;2024-01-16T05:30:02;100400.88;;;0.26;82.34
84136;BME280;74238;50.566;7.262;2024-01-16T05:32:28;100407.69;;;0.20;82.75
84136;BME280;74238;50.566;7.262;2024-01-16T05:34:53;100366.31;;;-0.08;82.67
84136;BME280;74238;50.566;7.262;2024-01-16T05:37:19;100412.03;;;0.21;82.91
84136;BME280;74238;50.566;7.262;2024-01-16T05:39:44;100346.28;;;-0.14;82.71
84136;BME280;74238;50.566;7.262;2024-01-16T05:42:11;100391.09;;;0.14;83.14
84136;BME280;74238;50.566;7.262;2024-01-16T05:44:36;100393.72;;;0.15;83.17
84136;BME280;74238;50.566;7.262;2024-01-16T05:47:02;100398.09;;;0.18;82.80
84136;BME280;74238;50.566;7.262;2024-01-16T05:49:27;100389.31;;;0.13;82.74
84136;BME280;74238;50.566;7.262;2024-01-16T05:51:52;100399.81;;;0.17;83.32
84136;BME280;74238;50.566;7.262;2024-01-16T05:54:18;100386.72;;;0.11;83.26
84136;BME280;74238;50.566;7.262;2024-01-16T05:56:43;100391.13;;;0.15;83.22
84136;BME280;74238;50.566;7.262;2024-01-16T05:59:08;100390.25;;;0.15;82.65
84136;BME280;74238;50.566;7.262;2024-01-16T06:01:34;100378.88;;;0.10;82.48
84136;BME280;74238;50.566;7.262;2024-01-16T06:03:59;100379.75;;;0.10;82.81
84136;BME280;74238;50.566;7.262;2024-01-16T06:06:25;100385.84;;;0.12;83.55
84136;BME280;74238;50.566;7.262;2024-01-16T06:08:50;100392.97;;;0.19;83.26
84136;BME280;74238;50.566;7.262;2024-01-16T06:11:15;100387.78;;;0.19;82.63
84136;BME280;74238;50.566;7.262;2024-01-16T06:13:41;100393.91;;;0.23;83.03
84136;BME280;74238;50.566;7.262;2024-01-16T06:16:06;100394.78;;;0.24;82.87
84136;BME280;74238;50.566;7.262;2024-01-16T06:18:35;100391.34;;;0.25;83.36
84136;BME280;74238;50.566;7.262;2024-01-16T06:21:01;100358.03;;;0.07;83.48
84136;BME280;74238;50.566;7.262;2024-01-16T06:23:26;100382.50;;;0.16;83.28
84136;BME280;74238;50.566;7.262;2024-01-16T06:25:52;100370.22;;;0.11;83.06
84136;BME280;74238;50.566;7.262;2024-01-16T06:28:17;100394.69;;;0.20;83.31
84136;BME280;74238;50.566;7.262;2024-01-16T06:30:42;100395.56;;;0.19;83.10
84136;BME280;74238;50.566;7.262;2024-01-16T06:33:08;100382.47;;;0.15;83.70
84136;BME280;74238;50.566;7.262;2024-01-16T06:35:33;100399.03;;;0.21;83.70
84136;BME280;74238;50.566;7.262;2024-01-16T06:37:58;100385.13;;;0.18;83.82
84136;BME280;74238;50.566;7.262;2024-01-16T06:40:23;100366.75;;;0.10;83.15
84136;BME280;74238;50.566;7.262;2024-01-16T06:42:49;100386.91;;;0.20;83.13
84136;BME280;74238;50.566;7.262;2024-01-16T06:45:14;100386.00;;;0.18;83.58
84136;BME280;74238;50.566;7.262;2024-01-16T06:47:41;100390.19;;;0.13;83.29
84136;BME280;74238;50.566;7.262;2024-01-16T06:50:10;100376.94;;;0.01;83.41
84136;BME280;74238;50.566;7.262;2024-01-16T06:52:35;100377.88;;;0.05;83.85
84136;BME280;74238;50.566;7.262;2024-01-16T06:55:00;100397.09;;;0.13;83.30
84136;BME280;74238;50.566;7.262;2024-01-16T06:57:26;100401.50;;;0.15;83.37
84136;BME280;74238;50.566;7.262;2024-01-16T06:59:52;100403.22;;;0.15;83.87
84136;BME280;74238;50.566;7.262;2024-01-16T07:02:17;100390.84;;;0.05;83.93
84136;BME280;74238;50.566;7.262;2024-01-16T07:04:43;100390.59;;;-0.06;83.97
84136;BME280;74238;50.566;7.262;2024-01-16T07:07:08;100395.84;;;-0.03;83.73
84136;BME280;74238;50.566;7.262;2024-01-16T07:09:33;100398.50;;;-0.02;83.66
84136;BME280;74238;50.566;7.262;2024-01-16T07:12:01;100398.38;;;-0.06;83.26
84136;BME280;74238;50.566;7.262;2024-01-16T07:14:28;100415.88;;;0.03;84.21
84136;BME280;74238;50.566;7.262;2024-01-16T07:16:54;100413.28;;;0.01;84.07
84136;BME280;74238;50.566;7.262;2024-01-16T07:19:19;100414.94;;;-0.01;83.97
84136;BME280;74238;50.566;7.262;2024-01-16T07:21:44;100413.19;;;-0.02;83.67
84136;BME280;74238;50.566;7.262;2024-01-16T07:24:10;100421.81;;;-0.03;83.73
84136;BME280;74238;50.566;7.262;2024-01-16T07:26:35;100413.03;;;-0.08;83.43
84136;BME280;74238;50.566;7.262;2024-01-16T07:29:00;100413.94;;;-0.06;83.50
84136;BME280;74238;50.566;7.262;2024-01-16T07:31:26;100415.63;;;-0.08;83.59
84136;BME280;74238;50.566;7.262;2024-01-16T07:33:51;100369.94;;;-0.36;83.48
84136;BME280;74238;50.566;7.262;2024-01-16T07:36:17;100417.25;;;-0.13;83.18
84136;BME280;74238;50.566;7.262;2024-01-16T07:38:42;100416.34;;;-0.14;83.24
84136;BME280;74238;50.566;7.262;2024-01-16T07:41:07;100413.59;;;-0.20;82.29
84136;BME280;74238;50.566;7.262;2024-01-16T07:43:33;100407.19;;;-0.33;82.48
84136;BME280;74238;50.566;7.262;2024-01-16T07:45:59;100413.28;;;-0.32;82.22
84136;BME280;74238;50.566;7.262;2024-01-16T07:48:24;100424.63;;;-0.29;82.38
84136;BME280;74238;50.566;7.262;2024-01-16T07:50:50;100433.25;;;-0.30;81.90
84136;BME280;74238;50.566;7.262;2024-01-16T07:53:15;100434.88;;;-0.33;80.98
84136;BME280;74238;50.566;7.262;2024-01-16T07:55:41;100435.63;;;-0.37;80.87
84136;BME280;74238;50.566;7.262;2024-01-16T07:58:07;100444.28;;;-0.37;81.52
84136;BME280;74238;50.566;7.262;2024-01-16T08:00:32;100432.81;;;-0.45;80.70
84136;BME280;74238;50.566;7.262;2024-01-16T08:02:58;100443.34;;;-0.39;81.36
84136;BME280;74238;50.566;7.262;2024-01-16T08:05:23;100446.81;;;-0.40;81.18
84136;BME280;74238;50.566;7.262;2024-01-16T08:07:51;100446.88;;;-0.37;81.18
84136;BME280;74238;50.566;7.262;2024-01-16T08:10:16;100442.53;;;-0.38;80.89
84136;BME280;74238;50.566;7.262;2024-01-16T08:12:41;100446.00;;;-0.37;81.35
84136;BME280;74238;50.566;7.262;2024-01-16T08:15:07;100444.16;;;-0.41;81.06
84136;BME280;74238;50.566;7.262;2024-01-16T08:17:33;100406.31;;;-0.67;80.93
84136;BME280;74238;50.566;7.262;2024-01-16T08:19:59;100464.19;;;-0.36;81.07
84136;BME280;74238;50.566;7.262;2024-01-16T08:22:24;100457.09;;;-0.43;80.94
84136;BME280;74238;50.566;7.262;2024-01-16T08:24:49;100453.72;;;-0.39;80.91
84136;BME280;74238;50.566;7.262;2024-01-16T08:27:15;100428.91;;;-0.62;81.15
84136;BME280;74238;50.566;7.262;2024-01-16T08:29:41;100462.38;;;-0.40;80.21
84136;BME280;74238;50.566;7.262;2024-01-16T08:32:07;100460.63;;;-0.39;80.69
84136;BME280;74238;50.566;7.262;2024-01-16T08:34:32;100462.38;;;-0.38;79.15
84136;BME280;74238;50.566;7.262;2024-01-16T08:36:57;100461.66;;;-0.34;79.98
84136;BME280;74238;50.566;7.262;2024-01-16T08:39:23;100464.41;;;-0.28;78.29
84136;BME280;74238;50.566;7.262;2024-01-16T08:41:49;100455.09;;;-0.21;78.83
84136;BME280;74238;50.566;7.262;2024-01-16T08:44:15;100454.47;;;-0.11;78.21
84136;BME280;74238;50.566;7.262;2024-01-16T08:46:40;100450.06;;;0.19;78.03
84136;BME280;74238;50.566;7.262;2024-01-16T08:49:05;100442.09;;;0.48;77.13
84136;BME280;74238;50.566;7.262;2024-01-16T08:51:31;100414.69;;;0.61;75.97
84136;BME280;74238;50.566;7.262;2024-01-16T08:53:56;100455.75;;;0.77;75.07
84136;BME280;74238;50.566;7.262;2024-01-16T08:56:21;100452.09;;;0.69;74.94
84136;BME280;74238;50.566;7.262;2024-01-16T08:58:47;100465.97;;;0.70;75.29
84136;BME280;74238;50.566;7.262;2024-01-16T09:01:12;100440.53;;;0.55;76.12
84136;BME280;74238;50.566;7.262;2024-01-16T09:03:37;100465.84;;;0.63;75.52
84136;BME280;74238;50.566;7.262;2024-01-16T09:06:03;100482.16;;;0.59;76.02
84136;BME280;74238;50.566;7.262;2024-01-16T09:08:28;100478.69;;;0.57;75.91
84136;BME280;74238;50.566;7.262;2024-01-16T09:10:55;100478.69;;;0.57;75.99
84136;BME280;74238;50.566;7.262;2024-01-16T09:13:21;100481.31;;;0.59;74.71
84136;BME280;74238;50.566;7.262;2024-01-16T09:15:47;100477.94;;;0.63;74.67
84136;BME280;74238;50.566;7.262;2024-01-16T09:18:14;100482.75;;;0.84;75.54
84136;BME280;74238;50.566;7.262;2024-01-16T09:20:39;100472.13;;;1.55;74.15
84136;BME280;74238;50.566;7.262;2024-01-16T09:23:04;100476.31;;;2.99;71.22
84136;BME280;74238;50.566;7.262;2024-01-16T09:25:30;100478.13;;;4.71;64.41
84136;BME280;74238;50.566;7.262;2024-01-16T09:27:55;100436.72;;;5.75;61.85
84136;BME280;74238;50.566;7.262;2024-01-16T09:30:21;100434.19;;;6.72;58.33
84136;BME280;74238;50.566;7.262;2024-01-16T09:32:50;100448.84;;;7.42;55.55
84136;BME280;74238;50.566;7.262;2024-01-16T09:35:15;100464.44;;;7.78;54.66
84136;BME280;74238;50.566;7.262;2024-01-16T09:37:40;100468.97;;;7.46;54.68
84136;BME280;74238;50.566;7.262;2024-01-16T09:40:06;100475.19;;;7.23;55.61
84136;BME280;74238;50.566;7.262;2024-01-16T09:42:32;100471.72;;;7.07;55.70
84136;BME280;74238;50.566;7.262;2024-01-16T09:45:00;100476.91;;;7.33;55.02
84136;BME280;74238;50.566;7.262;2024-01-16T09:47:26;100478.53;;;7.59;54.25
84136;BME280;74238;50.566;7.262;2024-01-16T09:49:52;100471.59;;;7.46;54.50
84136;BME280;74238;50.566;7.262;2024-01-16T09:52:19;100475.22;;;7.09;54.83
84136;BME280;74238;50.566;7.262;2024-01-16T09:54:45;100455.19;;;6.52;56.17
84136;BME280;74238;50.566;7.262;2024-01-16T09:57:12;100470.00;;;6.13;55.38
84136;BME280;74238;50.566;7.262;2024-01-16T09:59:39;100474.25;;;5.72;58.13
84136;BME280;74238;50.566;7.262;2024-01-16T10:02:05;100452.31;;;5.32;58.85
84136;BME280;74238;50.566;7.262;2024-01-16T10:04:33;100476.56;;;5.02;60.08
84136;BME280;74238;50.566;7.262;2024-01-16T10:07:01;100476.22;;;4.50;59.48
84136;BME280;74238;50.566;7.262;2024-01-16T10:09:27;100454.78;;;3.91;62.44
84136;BME280;74238;50.566;7.262;2024-01-16T10:11:52;100457.88;;;3.55;63.46
84136;BME280;74238;50.566;7.262;2024-01-16T10:14:19;100463.69;;;3.32;64.25
84136;BME280;74238;50.566;7.262;2024-01-16T10:17:04;100461.59;;;3.05;64.61
84136;BME280;74238;50.566;7.262;2024-01-16T10:19:48;100439.50;;;2.77;62.63
84136;BME280;74238;50.566;7.262;2024-01-16T10:22:19;100441.22;;;2.78;65.86
84136;BME280;74238;50.566;7.262;2024-01-16T10:24:45;100438.50;;;2.71;65.54
84136;BME280;74238;50.566;7.262;2024-01-16T10:27:10;100441.00;;;2.63;65.55
84136;BME280;74238;50.566;7.262;2024-01-16T10:29:35;100455.69;;;2.56;66.19
84136;BME280;74238;50.566;7.262;2024-01-16T10:32:01;100445.22;;;2.53;66.03
84136;BME280;74238;50.566;7.262;2024-01-16T10:34:27;100441.63;;;2.45;64.84
84136;BME280;74238;50.566;7.262;2024-01-16T10:36:58;100424.81;;;2.28;65.55
84136;BME280;74238;50.566;7.262;2024-01-16T10:39:28;100430.13;;;2.32;65.95
84136;BME280;74238;50.566;7.262;2024-01-16T10:41:54;100424.91;;;2.32;66.68
84136;BME280;74238;50.566;7.262;2024-01-16T10:44:20;100418.81;;;2.33;66.88
84136;BME280;74238;50.566;7.262;2024-01-16T10:46:46;100417.19;;;2.38;66.52
84136;BME280;74238;50.566;7.262;2024-01-16T10:49:11;100407.63;;;2.37;66.56
84136;BME280;74238;50.566;7.262;2024-01-16T10:51:38;100398.91;;;2.34;66.61
84136;BME280;74238;50.566;7.262;2024-01-16T10:54:05;100398.06;;;2.36;66.78
84136;BME280;74238;50.566;7.262;2024-01-16T10:56:36;100406.72;;;2.34;67.03
84136;BME280;74238;50.566;7.262;2024-01-16T11:01:48;100403.13;;;2.27;66.75
84136;BME280;74238;50.566;7.262;2024-01-16T11:04:15;100397.91;;;2.27;66.28
84136;BME280;74238;50.566;7.262;2024-01-16T11:06:41;100345.47;;;2.04;66.98
84136;BME280;74238;50.566;7.262;2024-01-16T11:09:08;100364.75;;;2.15;66.40
84136;BME280;74238;50.566;7.262;2024-01-16T11:11:34;100383.09;;;2.25;66.68
84136;BME280;74238;50.566;7.262;2024-01-16T11:14:02;100377.88;;;2.23;66.62
84136;BME280;74238;50.566;7.262;2024-01-16T11:16:30;100389.97;;;2.19;67.44
84136;BME280;74238;50.566;7.262;2024-01-16T11:18:57;100383.81;;;2.14;67.58
84136;BME280;74238;50.566;7.262;2024-01-16T11:21:22;100342.53;;;1.84;67.73
84136;BME280;74238;50.566;7.262;2024-01-16T11:23:49;100385.47;;;2.09;66.62
84136;BME280;74238;50.566;7.262;2024-01-16T11:26:30;100362.63;;;1.91;66.97
84136;BME280;74238;50.566;7.262;2024-01-16T11:31:52;100368.81;;;1.99;67.22
84136;BME280;74238;50.566;7.262;2024-01-16T11:37:11;100370.72;;;2.10;65.93
84136;BME280;74238;50.566;7.262;2024-01-16T11:39:37;100362.91;;;2.10;66.54
84136;BME280;74238;50.566;7.262;2024-01-16T11:42:03;100363.78;;;2.10;66.76
84136;BME280;74238;50.566;7.262;2024-01-16T11:44:49;100363.91;;;2.19;65.49
84136;BME280;74238;50.566;7.262;2024-01-16T11:47:25;100363.03;;;2.19;66.57
84136;BME280;74238;50.566;7.262;2024-01-16T11:50:07;100364.78;;;2.18;65.64
84136;BME280;74238;50.566;7.262;2024-01-16T11:55:28;100346.44;;;2.11;64.54
84136;BME280;74238;50.566;7.262;2024-01-16T12:00:32;100365.03;;;2.34;64.67
84136;BME280;74238;50.566;7.262;2024-01-16T12:03:01;100375.50;;;2.37;64.13
84136;BME280;74238;50.566;7.262;2024-01-16T12:05:28;100371.19;;;2.39;65.04
84136;BME280;74238;50.566;7.262;2024-01-16T12:07:53;100365.06;;;2.38;64.72
84136;BME280;74238;50.566;7.262;2024-01-16T12:10:21;100349.06;;;2.14;64.85
84136;BME280;74238;50.566;7.262;2024-01-16T12:12:49;100356.13;;;2.21;65.18
84136;BME280;74238;50.566;7.262;2024-01-16T12:15:16;100346.47;;;2.14;65.82
84136;BME280;74238;50.566;7.262;2024-01-16T12:20:20;100328.03;;;2.00;65.55
84136;BME280;74238;50.566;7.262;2024-01-16T12:22:53;100337.66;;;2.06;64.47
84136;BME280;74238;50.566;7.262;2024-01-16T12:25:29;100324.69;;;2.07;65.54
84136;BME280;74238;50.566;7.262;2024-01-16T12:27:59;100289.56;;;1.81;65.08
84136;BME280;74238;50.566;7.262;2024-01-16T12:30:26;100307.13;;;1.94;64.99
84136;BME280;74238;50.566;7.262;2024-01-16T12:33:05;100320.25;;;2.02;64.97
84136;BME280;74238;50.566;7.262;2024-01-16T12:35:37;100325.56;;;2.08;65.04
84136;BME280;74238;50.566;7.262;2024-01-16T12:38:05;100316.03;;;2.10;63.98
84136;BME280;74238;50.566;7.262;2024-01-16T12:40:31;100315.19;;;2.11;64.27
84136;BME280;74238;50.566;7.262;2024-01-16T12:42:57;100309.94;;;2.08;64.41
84136;BME280;74238;50.566;7.262;2024-01-16T12:45:23;100302.81;;;1.97;63.54
84136;BME280;74238;50.566;7.262;2024-01-16T12:47:55;100280.09;;;1.87;63.85
84136;BME280;74238;50.566;7.262;2024-01-16T12:50:25;100284.44;;;1.87;63.97
84136;BME280;74238;50.566;7.262;2024-01-16T12:53:11;100296.66;;;1.91;63.34
84136;BME280;74238;50.566;7.262;2024-01-16T12:55:40;100302.69;;;1.88;63.81
84136;BME280;74238;50.566;7.262;2024-01-16T12:58:20;100278.19;;;1.74;62.26
84136;BME280;74238;50.566;7.262;2024-01-16T13:00:47;100290.34;;;1.75;63.94
84136;BME280;74238;50.566;7.262;2024-01-16T13:03:25;100294.69;;;1.74;63.19
84136;BME280;74238;50.566;7.262;2024-01-16T13:05:59;100278.03;;;1.65;63.84
84136;BME280;74238;50.566;7.262;2024-01-16T13:08:25;100278.03;;;1.65;63.96
84136;BME280;74238;50.566;7.262;2024-01-16T13:11:07;100267.44;;;1.52;63.21
84136;BME280;74238;50.566;7.262;2024-01-16T13:13:32;100250.88;;;1.47;63.74